• Join FlightAware (Why Join?)
  • Login
  • US Flag 
12:32AM EST


 

Airport Tracker/Info


-or-


 

Live Flight TrackerFlight Track Log ✈ N959RP ✈ 16-Jun-2013 ✈ KTYS - KGRR

Flight Track Log - Related Links

Times and Time Zones

All times are in EDT time to prevent confusion due to time zone crossing. See the N959RP flight status page for this flight to view local times or setup timezone preferences in your user account.

Time Position Orientation Groundspeed Altitude Reporting Facility
EDT Latitude Longitude Course Direction KTS MPH feet Rate Location/Type
01:56PM 35.7872 -84.0925 350° North 193 222 5,800  Level Atlanta Center
01:57PM 35.8581 -84.1081 350° North 157 181 8,600 2,880 Climbing Atlanta Center
01:58PM 35.9456 -84.1158 356° North 237 273 11,600 3,000 Climbing Atlanta Center
01:59PM 36.0458 -84.1208 358° North 312 359 14,600 3,360 Climbing Atlanta Center
02:00PM 36.1522 -84.1261 358° North 341 392 18,400 3,360 Climbing Atlanta Center
02:01PM 36.2628 -84.1342 357° North 389 448 21,600 2,700 Climbing Indianapolis Center
02:02PM 36.3758 -84.1417 357° North 400 460 24,200 2,400 Climbing Indianapolis Center
02:03PM 36.4931 -84.1506 357° North 415 478 26,600 2,220 Climbing Indianapolis Center
02:04PM 36.6244 -84.1606 357° North 423 487 28,800 1,800 Climbing Indianapolis Center
02:05PM 36.7481 -84.1686 357° North 435 501 30,400 1,440 Climbing Indianapolis Center
02:06PM 36.8728 -84.1783 356° North 445 512 31,800 1,320 Climbing Indianapolis Center
02:07PM 36.9994 -84.1881 356° North 451 519 33,200 1,140 Climbing Indianapolis Center
02:08PM 37.1292 -84.1978 357° North 460 529 34,200 960 Climbing Indianapolis Center
02:09PM 37.2822 -84.2089 357° North 469 540 35,300 1,020 Climbing Indianapolis Center
02:10PM 37.4139 -84.2200 356° North 471 542 36,300 1,020 Climbing Indianapolis Center
02:12PM 37.6753 -84.2364 357° North 465 535 38,500 1,020 Climbing Indianapolis Center
02:13PM 37.8022 -84.2464 356° North 457 526 39,500 720 Climbing Indianapolis Center
02:14PM 37.9292 -84.2553 357° North 455 524 40,000 240 Climbing Indianapolis Center
02:15PM 38.0569 -84.2661 356° North 459 528 40,000  Level Indianapolis Center
02:16PM 38.2075 -84.2761 357° North 461 531 40,000  Level Indianapolis Center
02:17PM 38.3350 -84.2867 356° North 460 529 40,000  Level Indianapolis Center
02:18PM 38.4644 -84.2956 357° North 463 533 40,000  Level Indianapolis Center
02:19PM 38.5944 -84.3042 357° North 465 535 40,000 -60 Level Indianapolis Center
02:20PM 38.7144 -84.3264 352° North 461 531 39,900 -60 Descending Indianapolis Center
02:21PM 38.8581 -84.3678 347° North 449 517 39,900  Level Indianapolis Center
02:22PM 38.9772 -84.4008 348° North 438 504 39,900  Level Indianapolis Center
02:23PM 39.0967 -84.4319 349° North 435 501 39,900  Level Indianapolis Center
02:24PM 39.2167 -84.4650 348° North 437 503 39,900 -540 Level Indianapolis Center
02:25PM 39.3367 -84.4967 348° North 435 501 38,900 -1,320 Descending Indianapolis Center
02:26PM 39.4603 -84.5311 348° North 445 512 37,300 -1,020 Descending Indianapolis Center
02:27PM 39.5872 -84.5672 348° North 457 526 36,900 -240 Descending Indianapolis Center
02:29PM 39.7158 -84.6028 348° North 462 532 36,900  Level Indianapolis Center
02:30PM 39.8311 -84.6658 337° Northwest 445 512 36,900  Level Indianapolis Center
02:31PM 39.9475 -84.7242 339° North 443 510 36,900 -60 Level Indianapolis Center
02:32PM 40.0950 -84.7603 349° North 455 524 36,800 -660 Descending Indianapolis Center
02:33PM 40.2194 -84.7925 349° North 451 519 35,600 -1,620 Descending Indianapolis Center
02:34PM 40.3447 -84.8256 349° North 454 522 33,500 -1,800 Descending Indianapolis Center
02:35PM 40.4739 -84.8592 349° North 462 532 32,000 -780 Descending Indianapolis Center
02:36PM 40.5989 -84.8931 348° North 458 527 31,900  Descending Indianapolis Center
02:37PM 40.7133 -84.9228 349° North 452 520 32,000  Climbing Indianapolis Center
02:38PM 40.8672 -84.9639 349° North 469 540 32,000 -120 Level Indianapolis Center
02:39PM 40.9958 -84.9986 348° North 472 543 31,800 -1,080 Descending Indianapolis Center
02:40PM 41.1222 -85.0325 349° North 466 536 29,800 -1,740 Descending Indianapolis Center
02:41PM 41.2792 -85.0744 349° North 457 526 28,000 -1,080 Descending Chicago Center
02:42PM 41.4014 -85.1081 348° North 452 520 27,400 -780 Descending Chicago Center
02:43PM 41.5264 -85.1425 348° North 462 532 26,400 -780 Descending Chicago Center
02:44PM 41.6528 -85.1764 349° North 472 543 25,800 -1,020 Descending Chicago Center
02:45PM 41.8011 -85.2189 348° North 465 535 24,300 -1,500 Descending Chicago Center
02:46PM 41.9228 -85.2525 348° North 456 525 22,800 -2,280 Descending Chicago Center
02:47PM 42.0425 -85.2869 348° North 418 481 19,600 -3,000 Descending Chicago Center
02:48PM 42.1553 -85.3189 348° North 415 478 16,600 -2,760 Descending Chicago Center
02:49PM 42.2622 -85.3486 348° North 401 461 13,900 -2,520 Descending Chicago Center
02:50PM 42.3544 -85.3733 349° North 351 404 11,400 -2,220 Descending Chicago Center
02:51PM 42.4367 -85.3953 349° North 312 359 9,400 -1,200 Descending Chicago Center
02:52PM 42.5303 -85.4003 358° North 286 329 9,000 -1,740 Descending Chicago Center
02:53PM 42.6064 -85.3950 North 278 320 5,900 -2,460 Descending Chicago Center
02:55PM 42.6786 -85.4075 353° North 266 306 3,900 -1,200 Descending Chicago Center
02:56PM 42.7408 -85.4450 336° Northwest 249 287 3,400 -660 Descending Chicago Center
02:57PM 42.7786 -85.4772 328° Northwest 173 199 2,600 -840 Descending Chicago Center
02:58PM 42.8228 -85.5031 337° Northwest 155 178 1,700 -780 Descending Chicago Center
02:59PM 42.8583 -85.5147 346° North 142 163 1,000 -720 Descending Chicago Center
03:01PM 42.8667 -85.5167 346° North  Level FlightAware Approximate
03:08PM 42.8808 -85.5228 346° North  Level Estimated
03:09PM 42.8808 -85.5228 346° North  Level Estimated
03:10PM 42.8808 -85.5228 346° North  Level Estimated
03:11PM 42.8808 -85.5228 346° North  Level Estimated
03:12PM 42.8808 -85.5228 346° North  Level Estimated
03:13PM 42.8808 -85.5228 346° North  Level Estimated
03:14PM 42.8808 -85.5228 346° North  Level Estimated
03:15PM 42.8808 -85.5228 346° North  Level Estimated